Stations météo

Publicité
Neuhaus am Rennweg, Allemagne (10557): Température de l'air & dewpoint: 10.01.2018 20:00:00 - 16.01.2018 20:00:00 (CET)Neuhaus am Rennweg, Allemagne (10557): Température de l'air 5cm & Température de l'air -5cm: 10.01.2018 20:00:00 - 16.01.2018 20:00:00 (CET)Neuhaus am Rennweg, Allemagne (10557): Température de l'air -20cm & Température de l'air -100cm: 10.01.2018 20:00:00 - 16.01.2018 20:00:00 (CET)Neuhaus am Rennweg, Allemagne (10557): Vitesse du vent & gusts: 10.01.2018 20:00:00 - 16.01.2018 20:00:00 (CET)Neuhaus am Rennweg, Allemagne (10557): Direction du vent: 10.01.2018 20:00:00 - 16.01.2018 20:00:00 (CET)Neuhaus am Rennweg, Allemagne (10557): visibility: 10.01.2018 20:00:00 - 16.01.2018 20:00:00 (CET)Neuhaus am Rennweg, Allemagne (10557): Quantités de précipitations: 10.01.2018 20:00:00 - 16.01.2018 20:00:00 (CET)
Date & Time tt [°C] td [°C] tt 5cm [°C] tt -5cm [°C] tt -20cm [°C] tt -100cm [°C] ff [km/h] ff [knt] fx [km/h] fx [knt] dd vv [km] rr [mm]
16.01.2018 20:00:00 -2,3 -3,1 0,0 0,2 0,6 3,0 26 14 47 26 W 28 0,0
16.01.2018 19:00:00 -2,2 -3,0 0,0 0,2 0,6 3,0 23 12 57 31 W 52 0,2
16.01.2018 18:00:00 -1,8 -2,7 0,0 0,2 0,6 3,0 29 16 49 26 W 50 0,2
16.01.2018 17:00:00 -1,6 -2,1 0,0 0,2 0,6 3,0 24 13 59 32 W 0,8 0,0
16.01.2018 16:00:00 -1,3 -2,1 0,0 0,2 0,6 3,0 29 15 79 43 W 47 1,4
16.01.2018 15:00:00 0,0 -0,7 0,0 0,2 0,6 3,0 36 19 68 37 W 29 0,0
16.01.2018 14:00:00 0,8 0,6 0,0 0,2 0,6 3,0 29 16 66 36 WSW 20 0,3
16.01.2018 13:00:00 0,5 0,4 -0,1 0,2 0,6 3,0 23 13 52 28 WSW 14 1,1
16.01.2018 12:00:00 0,5 0,5 -0,1 0,2 0,6 3,0 16 9 42 23 SW 0,7 0,0
16.01.2018 11:00:00 0,2 0,2 -0,1 0,2 0,6 3,0 19 11 42 23 WSW 6 0,4
16.01.2018 10:00:00 0,5 0,4 -0,1 0,2 0,6 3,0 26 14 45 25 WSW 11 1,4
16.01.2018 09:00:00 0,3 0,3 -0,2 0,2 0,6 3,0 22 12 48 26 SW 0,9 1,9
16.01.2018 08:00:00 0,3 0,3 -0,2 0,2 0,6 3,0 18 10 49 26 SW 1,7 0,4
16.01.2018 07:00:00 0,8 0,8 -0,2 0,2 0,6 3,0 27 15 57 31 SW 24 0,7
16.01.2018 06:00:00 0,5 0,5 -0,3 0,2 0,6 3,0 23 12 70 38 SW 1,1 0,7
16.01.2018 05:00:00 0,5 0,5 -0,3 0,2 0,6 3,0 32 18 75 40 SW 1,5 0,7
16.01.2018 04:00:00 0,2 0,2 -0,4 0,2 0,6 3,0 25 14 57 31 SW 0,2 1,5
16.01.2018 03:00:00 -0,1 -0,1 -0,4 0,2 0,6 3,0 27 15 55 30 SSW 1,0 2,5
16.01.2018 02:00:00 -0,4 -0,4 -0,5 0,2 0,6 3,0 27 15 51 28 SSW 1,1 2,6
16.01.2018 01:00:00 -0,9 -1,0 -0,5 0,2 0,6 3,0 31 17 59 32 SSW 0,6 2,1
16.01.2018 00:00:00 -1,4 -1,4 -0,6 0,2 0,6 3,0 27 15 54 29 S 0,3 2,7
15.01.2018 23:00:00 -2,1 -2,2 -0,6 0,2 0,6 3,0 26 14 45 24 S 0,7 3,9
15.01.2018 22:00:00 -2,5 -2,7 -0,7 0,2 0,6 3,0 22 12 48 26 S 0,4 1,8
15.01.2018 21:00:00 -2,5 -2,7 -0,7 0,2 0,6 3,0 22 12 52 28 S 0,6 0,1
15.01.2018 20:00:00 -2,6 -2,8 -0,7 0,2 0,6 3,0 23 12 45 25 S 1,9 0,5
15.01.2018 19:00:00 -3,1 -3,5 -0,7 0,2 0,6 3,0 24 13 47 26 S 0,9 0,4
15.01.2018 18:00:00 -3,1 -3,5 -0,7 0,2 0,6 3,0 22 12 47 25 S 2,9 0,0
15.01.2018 17:00:00 -3,2 -3,6 -0,7 0,2 0,6 3,0 22 12 46 25 S 2,6 0,0
15.01.2018 16:00:00 -3,2 -3,5 -0,8 0,2 0,6 3,0 19 10 43 23 S 3,3 0,0
15.01.2018 15:00:00 -3,3 -3,7 -0,7 0,2 0,6 3,0 24 13 44 24 S 4,2 0,1
15.01.2018 14:00:00 -3,5 -3,9 -0,8 0,2 0,6 3,0 22 12 43 23 S 3,2 0,0
15.01.2018 13:00:00 -3,8 -4,3 -0,9 0,2 0,6 3,0 25 14 44 24 S 4,7 0,0
15.01.2018 12:00:00 -4,1 -4,6 -1,0 0,2 0,6 3,0 21 11 48 26 S 6 0,0
15.01.2018 11:00:00 -4,3 -4,8 -1,1 0,2 0,6 3,0 20 11 47 25 S 6 0,0
15.01.2018 10:00:00 -4,5 -5,0 -1,2 0,2 0,7 3,0 23 12 41 22 S 5 0,0
15.01.2018 09:00:00 -4,7 -5,1 -1,3 0,2 0,7 3,0 20 11 38 20 S 4,3 0,0
15.01.2018 08:00:00 -4,6 -5,2 -1,3 0,2 0,7 3,0 21 11 37 20 S 2,1 0,0
15.01.2018 07:00:00 -4,7 -5,3 -1,4 0,2 0,7 3,0 20 11 42 23 S 1,9 0,0
15.01.2018 06:00:00 -4,8 -5,3 -1,4 0,2 0,7 3,0 21 12 42 23 S 3,2 0,0
15.01.2018 05:00:00 -4,8 -5,4 -1,4 0,2 0,7 3,0 24 13 42 23 S 2,1 0,0
15.01.2018 04:00:00 -4,8 -5,4 -1,4 0,2 0,7 3,0 22 12 42 23 S 2,3 0,0
15.01.2018 03:00:00 -4,8 -5,5 -1,3 0,2 0,7 3,0 20 11 38 21 S 2,5 0,0
15.01.2018 02:00:00 -4,5 -5,2 -1,3 0,2 0,7 3,0 19 11 40 22 S 5 0,0
15.01.2018 01:00:00 -4,2 -5,6 -1,2 0,2 0,7 3,0 15 8 31 17 S 12 0,0
15.01.2018 00:00:00 -3,9 -5,8 -1,1 0,2 0,7 3,0 14 7 27 14 S 18 0,0
14.01.2018 23:00:00 -4,0 -6,0 -1,1 0,2 0,7 3,0 14 7 31 17 S 17 0,0
14.01.2018 22:00:00 -4,0 -5,7 -1,1 0,2 0,7 3,0 11 6 27 15 SSE 13 0,0
14.01.2018 21:00:00 -4,0 -5,5 -1,0 0,2 0,7 3,0 13 7 31 17 SSE 12 0,0
14.01.2018 20:00:00 -3,8 -5,6 -1,0 0,2 0,7 3,0 14 7 26 14 SE 14 0,0
14.01.2018 19:00:00 -3,7 -5,9 -1,0 0,2 0,7 3,0 12 7 25 13 SSE 17 0,0
14.01.2018 18:00:00 -3,7 -5,9 -0,9 0,2 0,7 3,0 11 6 29 16 SE 19 0,0
14.01.2018 17:00:00 -3,6 -6,2 -0,8 0,2 0,7 3,0 14 7 26 14 SE 21 0,0
14.01.2018 16:00:00 -3,4 -6,1 -0,7 0,3 0,7 3,0 6 4 21 11 SE 21 0,0
14.01.2018 15:00:00 -3,2 -6,0 -0,6 0,3 0,7 3,0 9 5 23 12 SE 18 0,0
14.01.2018 14:00:00 -3,1 -5,8 -0,6 0,3 0,7 3,0 6 4 22 12 ESE 17 0,0
14.01.2018 13:00:00 -3,0 -6,0 -0,7 0,2 0,7 3,0 11 6 27 15 SE 21 0,0
14.01.2018 12:00:00 -3,2 -6,0 -0,8 0,3 0,7 3,0 10 5 28 15 SE 20 0,0
14.01.2018 11:00:00 -3,4 -6,1 -1,0 0,3 0,7 3,0 14 8 32 17 ESE 17 0,0
14.01.2018 10:00:00 -3,6 -5,8 -1,0 0,3 0,7 3,0 14 7 33 18 SE 16 0,0
14.01.2018 09:00:00 -3,6 -5,8 -1,0 0,3 0,7 3,0 17 9 37 20 ESE 17 0,0
14.01.2018 08:00:00 -3,7 -5,5 -1,0 0,3 0,8 3,0 16 9 32 17 ESE 15 0,0
14.01.2018 07:00:00 -3,8 -5,4 -1,0 0,3 0,8 3,0 14 8 32 17 SE 14 0,0
14.01.2018 06:00:00 -4,1 -5,4 -1,0 0,3 0,8 3,0 11 6 32 17 SE 13 0,0
14.01.2018 05:00:00 -4,4 -5,8 -0,9 0,4 0,8 3,0 14 8 32 17 SE 18 0,0
14.01.2018 04:00:00 -5,0 -6,4 -0,7 0,4 0,8 3,0 11 6 27 14 SE 17 0,0
14.01.2018 03:00:00 -5,6 -7,2 -0,5 0,4 0,8 3,0 8 4 30 16 ESE 16 0,0
14.01.2018 02:00:00 -5,6 -7,1 -0,4 0,4 0,8 3,0 10 5 23 12 SE 14 0,0
14.01.2018 01:00:00 -5,6 -6,7 -0,2 0,4 0,8 3,0 10 5 28 15 SE 9 0,0
14.01.2018 00:00:00 -5,6 -6,8 -0,1 0,4 0,8 3,0 9 5 27 14 SE 6 0,0
13.01.2018 23:00:00 -4,8 -5,6 0,0 0,4 0,8 3,0 8 5 24 13 SE 6 0,0
13.01.2018 22:00:00 -4,3 -5,1 0,0 0,4 0,8 3,0 9 5 23 13 ESE 7 0,0
13.01.2018 21:00:00 -3,8 -4,4 0,0 0,4 0,8 3,0 11 6 32 17 ESE 6 0,0
13.01.2018 20:00:00 -3,0 -3,3 0,0 0,4 0,8 3,0 10 5 27 15 E 2,5 0,0
13.01.2018 19:00:00 -2,7 -2,9 0,0 0,4 0,8 3,0 16 9 31 17 E 0,7 0,0
13.01.2018 18:00:00 -2,3 -2,4 0,0 0,4 0,8 3,0 17 9 29 16 E 0,5 0,0
13.01.2018 17:00:00 -1,9 -2,0 0,0 0,4 0,8 3,0 14 8 26 14 E 2,2 0,0
13.01.2018 16:00:00 -1,7 -1,7 0,0 0,4 0,8 3,0 12 6 24 13 E 0,4 0,0
13.01.2018 15:00:00 -1,5 -1,6 0,0 0,4 0,8 3,0 12 6 23 12 E 0,7 0,0
13.01.2018 14:00:00 -1,3 -1,3 0,0 0,4 0,8 3,0 13 7 23 12 E 0,8 0,0
13.01.2018 13:00:00 -1,1 -1,7 0,0 0,4 0,8 3,0 14 8 26 14 E 5 0,0
13.01.2018 12:00:00 -1,2 -2,1 0,0 0,4 0,8 3,0 14 8 28 15 E 9 0,0
13.01.2018 11:00:00 -1,3 -2,1 0,0 0,4 0,8 3,0 14 7 26 14 E 7 0,0
13.01.2018 10:00:00 -1,2 -2,0 0,0 0,4 0,8 3,0 15 8 26 14 E 7 0,0
13.01.2018 09:00:00 -1,0 -1,6 0,0 0,4 0,8 3,0 10 5 19 10 E 5 0,0
13.01.2018 08:00:00 -0,9 -1,5 0,0 0,4 0,8 3,0 10 5 23 12 E 10 0,0
13.01.2018 07:00:00 -0,7 -1,2 0,0 0,4 0,8 3,0 10 5 21 12 E 7 0,0
13.01.2018 06:00:00 -0,6 -0,9 0,0 0,4 0,8 3,0 10 5 21 11 E 6 0,0
13.01.2018 05:00:00 -0,5 -0,6 0,0 0,4 0,8 3,0 10 6 19 10 E 2,8 0,0
13.01.2018 04:00:00 -0,3 -0,4 0,0 0,4 0,8 3,0 6 3 14 7 E 0,9 0,0
13.01.2018 03:00:00 -0,3 -0,5 0,0 0,4 0,8 3,0 6 3 15 8 ESE 4,1 0,0
13.01.2018 02:00:00 0,1 0,1 0,0 0,4 0,8 3,0 5 3 12 6 E 0,1 0,0
13.01.2018 01:00:00 0,3 0,3 0,0 0,4 0,8 3,0 5 3 13 7 ESE 0,1 0,0
13.01.2018 00:00:00 0,5 0,5 0,0 0,4 0,8 3,0 6 3 13 7 ESE 0,5 0,0
12.01.2018 23:00:00 0,5 0,5 0,0 0,4 0,8 3,0 6 3 12 7 ESE 0,3 0,0
12.01.2018 22:00:00 0,4 0,4 0,0 0,4 0,8 3,0 6 3 10 6 E 0,2 0,0
12.01.2018 21:00:00 0,4 0,4 0,0 0,4 0,8 3,0 5 3 14 8 SE 0,8 0,0
12.01.2018 20:00:00 0,3 0,3 0,0 0,4 0,8 3,0 6 3 13 7 E 0,2 0,0
12.01.2018 19:00:00 0,4 0,4 0,0 0,4 0,8 3,0 6 3 12 6 E 0,1 0,0
12.01.2018 18:00:00 0,5 0,5 0,0 0,4 0,8 3,0 6 3 12 6 E 0,1 0,0
12.01.2018 17:00:00 0,5 0,4 0,0 0,4 0,7 3,0 5 3 11 6 E 0,2 0,0
12.01.2018 16:00:00 0,7 0,7 0,0 0,4 0,7 3,0 8 5 12 7 ENE 0,2 0,0
12.01.2018 15:00:00 0,9 0,8 0,0 0,4 0,7 3,0 6 4 10 5 ENE 0,5 0,0
12.01.2018 14:00:00 1,1 0,9 0,0 0,4 0,7 3,0 3 2 5 3 N 9 0,0
12.01.2018 13:00:00 1,0 0,9 0,0 0,4 0,7 3,0 3 2 8 5 NE 6 0,0
12.01.2018 12:00:00 1,0 1,0 0,0 0,4 0,7 3,0 4 2 8 5 ENE 0,1 0,1
12.01.2018 11:00:00 1,1 1,1 0,0 0,4 0,7 3,0 3 2 8 4 NE 0,1 0,1
12.01.2018 10:00:00 1,0 1,0 0,0 0,4 0,7 3,0 4 2 9 5 NNE 0,1 0,0
12.01.2018 09:00:00 1,1 1,1 0,0 0,4 0,7 3,0 5 3 10 5 NNW 0,1 0,0
12.01.2018 08:00:00 0,9 0,9 0,0 0,4 0,7 3,0 4 2 9 5 NNW 0,3 0,0
12.01.2018 07:00:00 0,9 0,9 0,0 0,4 0,7 3,0 5 3 7 4 N 0,5 0,0
12.01.2018 06:00:00 0,9 0,9 0,0 0,4 0,7 3,0 4 2 6 3 NNE 0,8 0,0
12.01.2018 05:00:00 0,9 0,9 0,0 0,4 0,7 3,0 3 2 9 5 N 0,1 0,0
12.01.2018 04:00:00 0,9 0,8 0,0 0,4 0,7 3,0 5 3 10 5 N 1,1 0,0
12.01.2018 03:00:00 0,9 0,8 0,0 0,4 0,7 3,0 6 3 12 7 N 0,7 0,0
12.01.2018 02:00:00 0,7 0,2 0,0 0,4 0,7 3,0 6 4 10 5 NNW 32 0,0
12.01.2018 01:00:00 0,6 0,1 0,0 0,4 0,7 3,0 5 3 10 5 W 66 0,0
12.01.2018 00:00:00 0,7 0,5 0,0 0,4 0,7 3,0 6 4 10 5 WNW 20 0,0
11.01.2018 23:00:00 0,7 0,5 0,0 0,4 0,7 3,0 6 3 8 4 WNW 12 0,0
11.01.2018 22:00:00 0,9 0,8 0,0 0,4 0,7 3,0 5 3 8 4 W 14 0,0
11.01.2018 21:00:00 1,0 0,9 0,0 0,3 0,7 3,0 4 2 7 4 WSW 1,8 0,0
11.01.2018 20:00:00 1,5 1,5 0,0 0,3 0,7 3,0 0 0 9 5 N 1,4 0,0
11.01.2018 19:00:00 1,7 1,6 0,0 0,3 0,7 3,0 4 2 13 7 N 2,5 0,0
11.01.2018 18:00:00 1,8 1,6 0,0 0,3 0,7 3,0 7 4 14 8 NNE 1,3 0,0
11.01.2018 17:00:00 2,4 1,5 0,0 0,3 0,7 3,0 7 4 14 8 NNE 9 0,0
11.01.2018 16:00:00 3,1 1,7 0,0 0,3 0,7 3,0 6 3 10 5 NNE 20 0,0
11.01.2018 15:00:00 3,5 1,7 0,0 0,3 0,7 3,0 4 2 14 7 N 34 0,0
11.01.2018 14:00:00 3,5 1,8 0,0 0,3 0,7 3,0 6 3 13 7 NW 32 0,0
11.01.2018 13:00:00 3,1 1,5 0,0 0,3 0,7 3,0 6 3 12 7 W 23 0,0
11.01.2018 12:00:00 3,2 1,3 -0,1 0,3 0,7 2,9 7 4 13 7 SW 36 0,0
11.01.2018 11:00:00 3,0 1,2 -0,3 0,2 0,7 2,9 6 3 10 6 SSW 40 0,0
11.01.2018 10:00:00 1,8 1,1 -0,4 0,2 0,7 2,9 8 4 12 6 SSW 33 0,0
11.01.2018 09:00:00 1,3 0,8 -0,5 0,2 0,7 2,9 8 4 10 6 SSW 20 0,1
11.01.2018 08:00:00 1,2 0,9 -0,8 0,2 0,7 2,9 6 4 11 6 S 9 0,0
11.01.2018 07:00:00 1,1 0,8 -1,0 0,2 0,7 2,9 9 5 13 7 S 22 0,0
11.01.2018 06:00:00 0,8 0,6 -1,2 0,2 0,7 2,9 8 4 13 7 S 15 0,0
11.01.2018 05:00:00 0,6 0,4 -1,3 0,2 0,7 2,9 8 5 12 7 S 12 0,0
11.01.2018 04:00:00 0,2 0,2 -1,4 0,3 0,7 2,9 6 4 13 7 SSW 8 0,0
11.01.2018 03:00:00 0,3 0,1 -1,3 0,3 0,7 2,9 10 5 14 8 S 9 0,0
11.01.2018 02:00:00 0,5 0,2 -1,1 0,3 0,7 2,9 10 5 18 10 S 13 0,0
11.01.2018 01:00:00 0,7 0,4 -0,8 0,3 0,7 2,9 12 6 19 11 SSW 7 0,0
11.01.2018 00:00:00 0,7 0,5 -0,8 0,3 0,7 2,9 11 6 18 10 S 7 0,0
10.01.2018 23:00:00 0,8 0,7 -0,8 0,3 0,7 2,9 9 5 17 9 S 2,8 0,0
10.01.2018 22:00:00 0,7 0,6 -0,7 0,4 0,7 2,9 12 6 18 10 S 4,9 0,0
10.01.2018 21:00:00 0,3 0,0 -0,5 0,4 0,7 2,9 10 5 17 9 SSE 1,2 0,0
10.01.2018 20:00:00 1,1 0,8 -0,3 0,4 0,7 2,9 10 6 18 10 S 9 0,0

tt = Température de l'air
td = dewpoint
tt 5cm = Température de l'air 5cm
tt -5cm = Température de l'air -5cm
tt -20cm = Température de l'air -20cm
tt -100cm = Température de l'air -100cm
ff = Vitesse du vent
fx = gusts
dd = Direction du vent
vv = visibility
rr = Quantités de précipitations

stations d'obs. à proximité